Time;durP1;ratioP1;P1;durP2;ratioP2;P2;SDS_P1;SDS_P2;PMS_P1;PMS_P2;Temp;Humidity;BMP_temperature;BMP_pressure;BME280_temperature;BME280_humidity;BME280_pressure;Samples;Min_cycle;Max_cycle;Signal;HPM_P1;HPM_P2
2024/01/25 00:00:51;;;;;;;3.70;1.60;;;;;;;11.26;nan;100902.22;4960777;28;20295;-80
2024/01/25 00:03:16;;;;;;;1.53;1.23;;;;;;;11.26;nan;100899.59;4962812;28;20219;-83
2024/01/25 00:05:43;;;;;;;2.10;1.70;;;;;;;11.27;nan;100898.66;4962158;28;20250;-81
2024/01/25 00:08:08;;;;;;;7.22;1.90;;;;;;;11.29;nan;100895.97;4960233;28;20454;-80
2024/01/25 00:10:34;;;;;;;3.93;1.67;;;;;;;11.31;nan;100899.38;4963833;28;20579;-83
2024/01/25 00:12:59;;;;;;;2.90;1.33;;;;;;;11.32;nan;100892.34;4973343;28;20234;-82
2024/01/25 00:15:25;;;;;;;11.30;2.37;;;;;;;11.32;nan;100879.19;4968779;28;20211;-81
2024/01/25 00:17:50;;;;;;;3.37;1.30;;;;;;;11.31;nan;100886.22;4966947;28;21049;-79
2024/01/25 00:20:16;;;;;;;2.10;1.73;;;;;;;11.31;nan;100899.38;4963303;28;20212;-79
2024/01/25 00:22:41;;;;;;;1.70;1.37;;;;;;;11.33;nan;100899.31;4959351;28;20792;-82
2024/01/25 00:25:07;;;;;;;3.27;1.40;;;;;;;11.34;nan;100887.84;4960886;28;20211;-81
2024/01/25 00:27:32;;;;;;;3.33;1.33;;;;;;;11.35;nan;100894.84;4963353;28;20219;-82
2024/01/25 00:29:58;;;;;;;3.23;1.93;;;;;;;11.35;nan;100893.06;4966988;28;20213;-80
2024/01/25 00:32:23;;;;;;;3.00;1.63;;;;;;;11.37;nan;100887.69;4978402;28;20605;-81
2024/01/25 00:34:49;;;;;;;6.53;2.07;;;;;;;11.39;nan;100889.34;4967330;28;20199;-79
2024/01/25 00:37:15;;;;;;;2.55;1.38;;;;;;;11.41;nan;100894.53;4961450;28;20202;-82
2024/01/25 00:39:41;;;;;;;2.72;1.52;;;;;;;11.42;nan;100902.38;4957172;28;20224;-83
2024/01/25 00:42:07;;;;;;;1.90;1.50;;;;;;;11.44;nan;100894.41;4957334;28;20212;-82
2024/01/25 00:44:33;;;;;;;4.47;1.37;;;;;;;11.44;nan;100889.13;4952393;28;20221;-82
2024/01/25 00:46:59;;;;;;;2.65;1.52;;;;;;;11.44;nan;100895.25;4951925;28;20221;-80
2024/01/25 00:49:25;;;;;;;5.97;1.40;;;;;;;11.45;nan;100898.72;4951088;28;20218;-83
2024/01/25 00:51:58;;;;;;;7.20;2.25;;;;;;;11.45;nan;100891.72;4951848;28;21331;-82
2024/01/25 00:54:23;;;;;;;2.05;1.48;;;;;;;11.46;nan;100897.81;4951091;28;20211;-82
2024/01/25 00:56:52;;;;;;;2.93;1.80;;;;;;;11.44;nan;100897.03;4950039;28;20228;-81
2024/01/25 00:59:18;;;;;;;3.35;2.22;;;;;;;11.40;nan;100885.81;4966471;28;20217;-80
2024/01/25 01:01:46;;;;;;;7.22;1.63;;;;;;;11.38;nan;100892.06;4981629;22;20231;-83
2024/01/25 01:04:15;;;;;;;3.35;1.77;;;;;;;11.36;nan;100892.13;4970089;28;20967;-83
2024/01/25 01:06:41;;;;;;;3.40;2.45;;;;;;;11.35;nan;100885.16;4972382;28;20430;-84
2024/01/25 01:09:07;;;;;;;4.00;2.38;;;;;;;11.39;nan;100880.59;4972647;28;20492;-89
2024/01/25 01:11:33;;;;;;;2.35;1.20;;;;;;;11.39;nan;100883.22;4988951;28;20237;-84
2024/01/25 01:13:58;;;;;;;2.80;1.80;;;;;;;11.39;nan;100888.50;4974778;28;20215;-85
2024/01/25 01:16:24;;;;;;;2.50;1.67;;;;;;;11.41;nan;100894.53;4979646;28;20207;-88
2024/01/25 01:18:49;;;;;;;4.77;1.57;;;;;;;11.40;nan;100888.44;4986657;28;20219;-84
2024/01/25 01:21:15;;;;;;;1.93;1.33;;;;;;;11.42;nan;100880.44;4983171;28;20237;-90
2024/01/25 01:23:44;;;;;;;3.37;1.67;;;;;;;11.44;nan;100887.34;4979694;28;20209;-84
2024/01/25 01:26:11;;;;;;;3.80;1.63;;;;;;;11.44;nan;100876.81;4974044;28;20628;-83
2024/01/25 01:28:36;;;;;;;2.33;1.38;;;;;;;11.44;nan;100870.72;4971803;28;20316;-86
2024/01/25 01:31:02;;;;;;;4.50;1.60;;;;;;;11.44;nan;100881.25;4970354;28;20892;-84
2024/01/25 01:33:27;;;;;;;3.10;1.80;;;;;;;11.43;nan;100879.53;4969736;28;20300;-84
2024/01/25 01:35:53;;;;;;;2.23;1.57;;;;;;;11.42;nan;100883.09;4972832;28;20451;-86
2024/01/25 01:38:18;;;;;;;2.60;1.63;;;;;;;11.41;nan;100884.88;4968694;28;20189;-86
2024/01/25 01:40:45;;;;;;;1.87;1.23;;;;;;;11.38;nan;100874.50;4968748;28;21152;-87
2024/01/25 01:43:42;;;;;;;3.15;1.80;;;;;;;11.35;nan;100876.44;4969142;28;20213;-86
2024/01/25 01:46:33;;;;;;;4.65;1.42;;;;;;;11.28;nan;100881.94;4962468;28;20221;-83
2024/01/25 01:48:59;;;;;;;3.40;1.60;;;;;;;11.26;nan;100877.69;4954321;28;20243;-82
2024/01/25 01:51:24;;;;;;;3.17;1.60;;;;;;;11.24;nan;100880.41;4964327;28;20224;-82
2024/01/25 01:53:51;;;;;;;2.27;1.47;;;;;;;11.24;nan;100888.28;4960013;28;20276;-82
2024/01/25 01:56:17;;;;;;;6.78;2.30;;;;;;;11.23;nan;100881.34;4963062;28;20211;-82
2024/01/25 01:58:45;;;;;;;4.20;1.73;;;;;;;11.21;nan;100888.44;4960862;28;20693;-82
2024/01/25 02:01:13;;;;;;;4.88;2.13;;;;;;;11.18;nan;100887.69;4957743;28;20220;-82
2024/01/25 02:03:38;;;;;;;3.38;2.50;;;;;;;11.13;nan;100880.03;4960064;28;20231;-83
2024/01/25 02:06:04;;;;;;;2.60;2.03;;;;;;;11.10;nan;100880.19;4964855;28;20210;-83
2024/01/25 02:08:30;;;;;;;3.30;2.00;;;;;;;11.09;nan;100873.19;4963635;28;20818;-85
2024/01/25 02:10:55;;;;;;;9.07;3.17;;;;;;;11.10;nan;100872.28;4963056;28;20714;-85
2024/01/25 02:13:24;;;;;;;4.83;2.23;;;;;;;11.07;nan;100872.41;4961251;28;20220;-83
2024/01/25 02:15:49;;;;;;;6.78;3.35;;;;;;;11.04;nan;100878.69;4960477;28;20223;-83
2024/01/25 02:18:18;;;;;;;7.13;3.10;;;;;;;11.01;nan;100888.47;4972080;28;20205;-83
2024/01/25 02:20:43;;;;;;;2.55;1.70;;;;;;;10.93;nan;100878.28;4968833;28;20217;-83
2024/01/25 02:23:09;;;;;;;3.63;1.67;;;;;;;10.88;nan;100880.28;4957354;28;20212;-83
2024/01/25 02:25:34;;;;;;;4.73;2.57;;;;;;;10.83;nan;100872.59;4958238;28;20551;-86
2024/01/25 02:28:00;;;;;;;3.10;2.40;;;;;;;10.80;nan;100874.50;4958135;28;20228;-85
2024/01/25 02:30:25;;;;;;;5.67;3.30;;;;;;;10.78;nan;100874.59;4958229;28;20290;-85
2024/01/25 02:32:51;;;;;;;3.80;2.87;;;;;;;10.78;nan;100877.22;4956422;28;20217;-86
2024/01/25 02:35:16;;;;;;;3.93;3.50;;;;;;;10.81;nan;100868.34;4959842;28;20775;-85
2024/01/25 02:37:42;;;;;;;5.40;3.50;;;;;;;10.81;nan;100865.72;4961062;28;20537;-83
2024/01/25 02:40:08;;;;;;;4.17;2.87;;;;;;;10.80;nan;100866.63;4960955;28;20472;-85
2024/01/25 02:42:33;;;;;;;2.60;2.40;;;;;;;10.79;nan;100865.78;4962458;28;20221;-85
2024/01/25 02:44:59;;;;;;;8.83;3.17;;;;;;;10.79;nan;100865.78;4960860;28;20240;-85
2024/01/25 02:47:24;;;;;;;3.93;2.63;;;;;;;10.78;nan;100869.31;4959659;28;20236;-89
2024/01/25 02:49:49;;;;;;;4.40;2.60;;;;;;;10.78;nan;100874.59;4959949;28;20354;-85
2024/01/25 02:52:18;;;;;;;2.93;2.53;;;;;;;10.80;nan;100880.63;4963266;28;20312;-87
2024/01/25 02:54:43;;;;;;;3.78;2.22;;;;;;;10.78;nan;100885.09;4960642;28;20204;-84
2024/01/25 02:57:24;;;;;;;6.03;2.53;;;;;;;10.75;nan;100887.88;4960169;28;20220;-85
2024/01/25 02:59:54;;;;;;;2.60;2.10;;;;;;;10.69;nan;100890.75;4968158;28;20902;-85
2024/01/25 03:02:20;;;;;;;9.97;2.60;;;;;;;10.66;nan;100890.88;4962544;28;20251;-86
2024/01/25 03:04:45;;;;;;;4.17;3.07;;;;;;;10.65;nan;100881.28;4965797;28;20213;-85
2024/01/25 03:07:11;;;;;;;5.00;2.80;;;;;;;10.53;nan;100885.31;4958610;28;20958;-84
2024/01/25 03:09:36;;;;;;;7.50;3.97;;;;;;;10.55;nan;100882.63;4958395;28;20452;-84
2024/01/25 03:12:02;;;;;;;5.43;3.70;;;;;;;10.52;nan;100880.13;4963152;28;20273;-84
2024/01/25 03:14:27;;;;;;;3.50;3.07;;;;;;;10.50;nan;100871.44;4964707;28;20743;-84
2024/01/25 03:16:53;;;;;;;4.57;2.60;;;;;;;10.50;nan;100887.19;4967969;28;20207;-84
2024/01/25 03:19:18;;;;;;;6.63;2.93;;;;;;;10.49;nan;100888.97;4968521;28;20213;-84
2024/01/25 03:21:44;;;;;;;6.10;3.33;;;;;;;10.49;nan;100882.88;4965361;28;20277;-84
2024/01/25 03:24:09;;;;;;;3.03;2.80;;;;;;;10.52;nan;100880.13;4965467;28;20235;-84
2024/01/25 03:26:35;;;;;;;4.73;2.70;;;;;;;10.51;nan;100881.06;4970097;28;20226;-84
2024/01/25 03:29:04;;;;;;;5.70;4.27;;;;;;;10.49;nan;100882.88;4962974;28;20202;-83
2024/01/25 03:31:29;;;;;;;3.42;2.72;;;;;;;10.50;nan;100884.56;4964018;28;20369;-84
2024/01/25 03:33:55;;;;;;;2.90;2.30;;;;;;;10.50;nan;100889.84;4965322;28;20318;-84
2024/01/25 03:36:21;;;;;;;8.13;2.73;;;;;;;10.51;nan;100887.16;4962522;28;20463;-84
2024/01/25 03:38:46;;;;;;;7.20;3.40;;;;;;;10.54;nan;100883.53;4962052;28;20454;-84
2024/01/25 03:41:11;;;;;;;2.73;2.53;;;;;;;10.55;nan;100895.75;4962508;28;20356;-84
2024/01/25 03:43:37;;;;;;;3.80;2.40;;;;;;;10.52;nan;100899.34;4961941;28;20214;-83
2024/01/25 03:46:02;;;;;;;2.30;2.07;;;;;;;10.52;nan;100896.72;4962511;28;20250;-83
2024/01/25 03:48:28;;;;;;;4.30;2.50;;;;;;;10.52;nan;100890.63;4961703;28;20633;-83
2024/01/25 03:50:56;;;;;;;2.50;2.30;;;;;;;10.53;nan;100887.94;4965486;28;20298;-83
2024/01/25 03:53:34;;;;;;;3.65;2.15;;;;;;;10.52;nan;100896.72;4970375;28;20471;-82
2024/01/25 03:56:54;;;;;;;2.08;1.48;;;;;;;10.51;nan;100894.19;4982965;28;20202;-84
2024/01/25 03:59:39;;;;;;;2.72;1.80;;;;;;;10.50;nan;100902.97;4993491;28;20287;-84
2024/01/25 04:02:32;;;;;;;5.60;1.58;;;;;;;10.49;nan;100903.91;4980308;28;20713;-84
2024/01/25 04:05:09;;;;;;;5.15;1.67;;;;;;;10.48;nan;100912.72;4971838;28;20211;-85
2024/01/25 04:07:36;;;;;;;4.22;2.00;;;;;;;10.46;nan;100910.13;4970473;28;20637;-85
2024/01/25 04:10:05;;;;;;;3.60;1.48;;;;;;;10.44;nan;100911.13;4971041;28;20216;-84
2024/01/25 04:12:32;;;;;;;1.67;1.17;;;;;;;10.41;nan;100915.56;4971209;28;20309;-84
2024/01/25 04:14:58;;;;;;;6.10;1.67;;;;;;;10.40;nan;100906.00;4967142;28;20202;-84
2024/01/25 04:17:42;;;;;;;4.90;1.90;;;;;;;10.35;nan;100899.22;4968632;28;20220;-85
2024/01/25 04:20:08;;;;;;;3.42;1.52;;;;;;;10.28;nan;100905.66;4973238;28;20207;-84
2024/01/25 04:22:35;;;;;;;2.20;1.17;;;;;;;10.28;nan;100903.88;4970847;28;20223;-85
2024/01/25 04:25:00;;;;;;;4.07;1.60;;;;;;;10.29;nan;100899.47;4969113;28;20223;-85
2024/01/25 04:27:28;;;;;;;2.10;1.07;;;;;;;10.28;nan;100903.03;4970405;28;20241;-83
2024/01/25 04:29:54;;;;;;;1.98;1.23;;;;;;;10.26;nan;100907.44;4970284;28;20218;-84
2024/01/25 04:32:20;;;;;;;2.67;1.15;;;;;;;10.26;nan;100928.44;4973144;28;20297;-89
2024/01/25 04:34:47;;;;;;;1.27;1.03;;;;;;;10.25;nan;100930.22;4970476;28;20241;-84
2024/01/25 04:37:13;;;;;;;3.08;1.02;;;;;;;10.25;nan;100927.59;4961308;28;20206;-85
2024/01/25 04:39:39;;;;;;;2.00;1.45;;;;;;;10.25;nan;100932.00;4966882;28;20266;-89
2024/01/25 04:42:14;;;;;;;6.30;2.03;;;;;;;10.24;nan;100919.81;4971028;28;20512;-90
2024/01/25 04:44:39;;;;;;;1.80;0.88;;;;;;;10.22;nan;100926.88;4979218;28;20240;-87
2024/01/25 04:47:05;;;;;;;2.20;1.40;;;;;;;10.20;nan;100926.94;4973044;28;20225;-90
2024/01/25 04:49:30;;;;;;;4.70;1.10;;;;;;;10.19;nan;100928.72;4975368;28;20199;-84
2024/01/25 04:51:56;;;;;;;5.67;3.03;;;;;;;10.17;nan;100929.69;4974390;28;20235;-84
2024/01/25 04:54:24;;;;;;;1.60;1.10;;;;;;;10.11;nan;100933.41;4972862;28;20791;-85
2024/01/25 04:56:50;;;;;;;2.50;1.10;;;;;;;10.10;nan;100942.22;4974769;28;20462;-88
2024/01/25 04:59:15;;;;;;;2.10;1.00;;;;;;;10.10;nan;100934.34;4978404;28;20214;-82
2024/01/25 05:01:41;;;;;;;3.17;1.13;;;;;;;10.09;nan;100937.88;4976232;28;20496;-86
2024/01/25 05:04:07;;;;;;;1.97;1.17;;;;;;;10.11;nan;100945.69;4975557;28;20468;-87
2024/01/25 05:06:33;;;;;;;1.50;1.20;;;;;;;10.09;nan;100943.13;4977220;28;20649;-85
2024/01/25 05:09:01;;;;;;;3.87;1.50;;;;;;;10.10;nan;100947.47;4981389;28;20430;-83
2024/01/25 05:11:27;;;;;;;2.55;1.10;;;;;;;10.10;nan;100957.09;4984534;28;20482;-86
2024/01/25 05:13:55;;;;;;;2.90;2.13;;;;;;;10.09;nan;100961.50;4982572;28;20214;-86
2024/01/25 05:16:21;;;;;;;2.38;1.05;;;;;;;10.10;nan;100959.72;4981546;28;20468;-85
2024/01/25 05:18:46;;;;;;;4.27;1.30;;;;;;;10.09;nan;100973.78;4977746;28;20203;-85
2024/01/25 05:21:12;;;;;;;2.80;1.17;;;;;;;10.03;nan;100963.53;4976245;28;20327;-85
2024/01/25 05:23:38;;;;;;;5.68;1.60;;;;;;;9.98;nan;100963.69;4975901;28;20206;-85
2024/01/25 05:26:06;;;;;;;2.92;1.42;;;;;;;9.96;nan;100979.53;4973096;28;20936;-85
2024/01/25 05:28:31;;;;;;;2.42;0.93;;;;;;;9.94;nan;100976.09;4975281;28;20215;-86
2024/01/25 05:30:57;;;;;;;2.70;1.33;;;;;;;9.94;nan;100983.97;4979028;28;20416;-84
2024/01/25 05:33:22;;;;;;;4.73;2.67;;;;;;;9.93;nan;100987.50;4974184;28;20955;-85
2024/01/25 05:35:48;;;;;;;3.43;1.10;;;;;;;9.90;nan;100990.25;4970950;28;20195;-85
2024/01/25 05:38:17;;;;;;;2.40;1.30;;;;;;;9.91;nan;100993.72;4969271;28;20564;-86
2024/01/25 05:40:42;;;;;;;2.25;1.35;;;;;;;9.89;nan;100991.16;4971206;28;20494;-83
2024/01/25 05:43:08;;;;;;;6.63;1.50;;;;;;;9.86;nan;100990.44;4974486;28;20245;-84
2024/01/25 05:45:34;;;;;;;3.00;1.30;;;;;;;9.85;nan;100988.72;4972395;28;20217;-83
2024/01/25 05:47:59;;;;;;;1.53;0.93;;;;;;;9.84;nan;100985.25;4978264;28;20629;-86
2024/01/25 05:50:25;;;;;;;1.60;1.10;;;;;;;9.86;nan;100983.41;4971899;28;20204;-83
2024/01/25 05:52:50;;;;;;;2.73;1.50;;;;;;;9.87;nan;100986.88;4976387;28;20270;-86
2024/01/25 05:55:16;;;;;;;2.37;1.30;;;;;;;9.88;nan;100991.22;4985095;28;20233;-86
2024/01/25 05:57:46;;;;;;;1.73;1.37;;;;;;;9.88;nan;100986.84;4972375;28;20244;-86
2024/01/25 06:00:13;;;;;;;2.38;1.25;;;;;;;9.88;nan;100992.09;4966441;28;20536;-86
2024/01/25 06:02:39;;;;;;;2.33;1.50;;;;;;;9.87;nan;100987.75;4977404;28;20309;-86
2024/01/25 06:05:04;;;;;;;3.83;1.58;;;;;;;9.85;nan;100989.56;4968177;28;20307;-87
2024/01/25 06:07:30;;;;;;;3.17;1.30;;;;;;;9.84;nan;100990.50;4963638;28;20255;-85
2024/01/25 06:09:56;;;;;;;3.67;1.80;;;;;;;9.83;nan;100999.28;4966675;28;20230;-86
2024/01/25 06:12:21;;;;;;;4.60;1.80;;;;;;;9.82;nan;100999.34;4969722;28;20228;-88
2024/01/25 06:14:47;;;;;;;4.17;1.20;;;;;;;9.80;nan;100991.50;4970053;28;20234;-88
2024/01/25 06:17:12;;;;;;;4.27;1.57;;;;;;;9.80;nan;100991.50;4969436;28;20204;-85
2024/01/25 06:19:37;;;;;;;2.30;1.80;;;;;;;9.77;nan;100983.75;4974372;28;20206;-86
2024/01/25 06:22:03;;;;;;;2.47;1.60;;;;;;;9.78;nan;100984.63;4959362;28;20778;-85
2024/01/25 06:24:28;;;;;;;2.50;2.00;;;;;;;9.80;nan;100985.41;4959654;28;20224;-85
2024/01/25 06:26:54;;;;;;;6.03;2.03;;;;;;;9.82;nan;100983.59;4959188;28;20220;-83
2024/01/25 06:29:20;;;;;;;4.97;1.70;;;;;;;9.82;nan;100983.59;4958104;28;20486;-83
2024/01/25 06:31:45;;;;;;;3.10;1.60;;;;;;;9.81;nan;100981.88;4955980;28;20233;-84
2024/01/25 06:34:11;;;;;;;2.97;1.37;;;;;;;9.81;nan;100987.13;4957704;28;20233;-83
2024/01/25 06:36:37;;;;;;;3.28;1.63;;;;;;;9.77;nan;100983.75;4957436;28;20698;-84
2024/01/25 06:39:06;;;;;;;2.93;1.70;;;;;;;9.79;nan;100992.44;4961260;28;20421;-83
2024/01/25 06:41:32;;;;;;;3.97;2.45;;;;;;;9.80;nan;100991.50;4963585;28;20230;-83
2024/01/25 06:43:58;;;;;;;4.40;2.05;;;;;;;9.80;nan;100988.88;4966934;28;20230;-83
2024/01/25 06:46:24;;;;;;;5.43;1.40;;;;;;;9.78;nan;100979.38;4971433;28;20277;-82
2024/01/25 06:48:50;;;;;;;2.03;1.20;;;;;;;9.76;nan;100979.44;4963523;28;20620;-83
2024/01/25 06:51:16;;;;;;;2.15;1.80;;;;;;;9.72;nan;100977.81;4960681;28;20234;-83
2024/01/25 06:53:41;;;;;;;2.17;1.53;;;;;;;9.71;nan;100984.00;4964235;28;20202;-84
2024/01/25 06:56:07;;;;;;;4.40;1.77;;;;;;;9.70;nan;100982.31;4962794;28;20791;-83
2024/01/25 06:58:36;;;;;;;6.17;2.80;;;;;;;9.71;nan;100989.25;4960734;28;20226;-84
2024/01/25 07:01:01;;;;;;;4.45;2.05;;;;;;;9.71;nan;100984.00;4959435;28;20228;-84
2024/01/25 07:03:27;;;;;;;3.67;2.30;;;;;;;9.71;nan;100989.25;4959689;28;20621;-85
2024/01/25 07:05:52;;;;;;;4.20;3.20;;;;;;;9.73;nan;100992.66;5010246;23;20273;-77
2024/01/25 07:08:18;;;;;;;4.40;1.70;;;;;;;9.76;nan;100987.31;4927428;28;20651;-79
2024/01/25 07:10:44;;;;;;;2.30;1.33;;;;;;;9.74;nan;100994.38;4941040;28;20255;-79
2024/01/25 07:13:10;;;;;;;3.22;2.05;;;;;;;9.74;nan;100986.50;4956266;28;20586;-79
2024/01/25 07:15:35;;;;;;;1.97;1.53;;;;;;;9.75;nan;100989.09;4953739;28;20218;-79
2024/01/25 07:18:01;;;;;;;1.50;0.90;;;;;;;9.78;nan;100992.50;4952826;28;20214;-79
2024/01/25 07:20:26;;;;;;;3.87;1.33;;;;;;;9.81;nan;100989.75;4950584;28;20750;-79
2024/01/25 07:22:52;;;;;;;7.57;1.17;;;;;;;9.83;nan;100978.28;4948688;28;20477;-78
2024/01/25 07:25:17;;;;;;;1.93;1.23;;;;;;;9.86;nan;100986.03;4950304;28;20225;-78
2024/01/25 07:27:46;;;;;;;5.43;1.47;;;;;;;9.90;nan;100981.53;4950397;28;20269;-78
2024/01/25 07:30:13;;;;;;;2.60;1.00;;;;;;;9.92;nan;100985.81;4953291;28;20219;-79
2024/01/25 07:32:41;;;;;;;2.40;1.60;;;;;;;9.94;nan;100991.84;4951827;28;20219;-78
2024/01/25 07:35:07;;;;;;;2.63;1.88;;;;;;;9.96;nan;100987.41;4951626;28;20684;-79
2024/01/25 07:37:33;;;;;;;4.60;1.33;;;;;;;9.97;nan;100981.22;4958322;28;20355;-79
2024/01/25 07:39:58;;;;;;;2.47;1.60;;;;;;;9.95;nan;100983.06;4962302;28;20284;-79
2024/01/25 07:42:23;;;;;;;2.03;1.10;;;;;;;9.91;nan;100978.84;4953786;28;20216;-79
2024/01/25 07:44:49;;;;;;;3.97;1.57;;;;;;;9.91;nan;100985.84;4954213;28;20250;-78
2024/01/25 07:47:14;;;;;;;3.33;1.60;;;;;;;9.91;nan;100980.59;4953915;28;20217;-78
2024/01/25 07:49:40;;;;;;;3.83;2.00;;;;;;;9.92;nan;100971.81;4946007;28;20242;-78
2024/01/25 07:52:06;;;;;;;6.10;3.37;;;;;;;9.93;nan;100976.16;4944607;28;20306;-79
2024/01/25 07:54:31;;;;;;;8.23;2.30;;;;;;;9.93;nan;100965.66;4945870;28;20472;-79
2024/01/25 07:56:56;;;;;;;5.50;3.10;;;;;;;9.94;nan;100976.09;4945042;28;20271;-79
2024/01/25 07:59:22;;;;;;;7.60;3.23;;;;;;;9.95;nan;100969.06;4948056;28;20571;-79
2024/01/25 08:01:48;;;;;;;4.27;2.87;;;;;;;9.94;nan;100976.09;4948250;28;20222;-79
2024/01/25 08:04:13;;;;;;;2.10;1.80;;;;;;;9.97;nan;100977.75;4945789;28;20895;-79
2024/01/25 08:06:38;;;;;;;3.80;2.23;;;;;;;9.98;nan;100982.06;4943625;28;21295;-79
2024/01/25 08:09:04;;;;;;;4.90;2.80;;;;;;;9.98;nan;100980.31;4943881;28;20467;-79
2024/01/25 08:11:29;;;;;;;4.90;3.10;;;;;;;9.98;nan;100980.31;4943135;28;20261;-79
2024/01/25 08:13:55;;;;;;;3.60;3.07;;;;;;;10.00;nan;100976.78;4945816;28;20217;-79
2024/01/25 08:16:20;;;;;;;7.30;2.43;;;;;;;10.01;nan;100965.34;4945977;28;20212;-79
2024/01/25 08:18:47;;;;;;;5.90;3.17;;;;;;;10.03;nan;100968.78;4944691;28;20377;-79
2024/01/25 08:21:12;;;;;;;6.55;4.63;;;;;;;10.05;nan;100965.19;4943346;28;20211;-79
2024/01/25 08:23:39;;;;;;;8.40;4.83;;;;;;;10.06;nan;100968.66;4943552;28;20213;-79
2024/01/25 08:26:05;;;;;;;7.65;4.45;;;;;;;10.09;nan;100973.78;4943675;28;20274;-79
2024/01/25 08:28:30;;;;;;;8.23;4.10;;;;;;;10.12;nan;100974.50;4943671;28;20219;-79
2024/01/25 08:30:56;;;;;;;7.03;4.90;;;;;;;10.16;nan;100980.50;4944243;28;20909;-79
2024/01/25 08:33:24;;;;;;;4.50;4.10;;;;;;;10.19;nan;100985.63;4943626;28;20620;-79
2024/01/25 08:35:49;;;;;;;7.65;6.82;;;;;;;10.21;nan;100989.06;4942242;28;20230;-79
2024/01/25 08:38:15;;;;;;;5.70;3.47;;;;;;;10.23;nan;100984.56;4942014;28;20222;-79
2024/01/25 08:40:40;;;;;;;11.70;3.30;;;;;;;10.22;nan;100990.75;4945368;28;20236;-79
2024/01/25 08:43:06;;;;;;;8.73;6.80;;;;;;;10.14;nan;100987.59;4945157;28;20227;-79
2024/01/25 08:45:31;;;;;;;11.97;7.40;;;;;;;10.12;nan;100992.03;4945895;28;20254;-79
2024/01/25 08:47:57;;;;;;;10.77;7.17;;;;;;;10.04;nan;100989.69;4942495;28;20308;-79
2024/01/25 08:50:22;;;;;;;9.60;6.30;;;;;;;10.04;nan;101000.19;4942309;28;20217;-79
2024/01/25 08:52:47;;;;;;;11.77;7.10;;;;;;;10.08;nan;100995.72;4943623;28;20237;-79
2024/01/25 08:55:13;;;;;;;7.90;5.60;;;;;;;10.09;nan;100998.25;4945186;28;20630;-79
2024/01/25 08:57:40;;;;;;;10.90;7.47;;;;;;;10.08;nan;100998.34;4945162;28;20250;-79
2024/01/25 09:00:12;;;;;;;6.00;3.88;;;;;;;10.09;nan;100992.16;4943514;28;20466;-79
2024/01/25 09:02:38;;;;;;;8.98;4.15;;;;;;;10.05;nan;100995.84;4942217;28;20378;-80
2024/01/25 09:05:05;;;;;;;6.32;4.25;;;;;;;10.04;nan;100996.72;4945614;28;20233;-79
2024/01/25 09:07:31;;;;;;;6.13;5.43;;;;;;;10.01;nan;100994.22;4942973;28;20241;-79
2024/01/25 09:09:56;;;;;;;8.40;4.67;;;;;;;10.08;nan;100993.94;4941349;28;20281;-78
2024/01/25 09:12:22;;;;;;;8.33;4.20;;;;;;;10.15;nan;100999.78;4945554;28;20254;-78
2024/01/25 09:14:47;;;;;;;5.90;4.13;;;;;;;10.17;nan;100983.06;4943457;28;20291;-79
2024/01/25 09:17:13;;;;;;;5.33;4.00;;;;;;;10.25;nan;100989.78;4943072;28;20224;-79
2024/01/25 09:19:39;;;;;;;5.50;4.10;;;;;;;10.30;nan;100988.72;4941231;28;20227;-79
2024/01/25 09:22:07;;;;;;;7.13;3.13;;;;;;;10.33;nan;100990.34;4944187;28;20202;-79
2024/01/25 09:24:35;;;;;;;4.30;3.00;;;;;;;10.37;nan;100990.19;4945129;28;20585;-78
2024/01/25 09:27:02;;;;;;;12.02;3.25;;;;;;;10.41;nan;100990.91;4941836;28;20234;-78
2024/01/25 09:29:28;;;;;;;4.63;3.13;;;;;;;10.47;nan;100997.66;4940906;28;20211;-78
2024/01/25 09:31:54;;;;;;;6.55;2.97;;;;;;;10.52;nan;100993.94;4940610;28;20297;-78
2024/01/25 09:34:19;;;;;;;2.80;2.60;;;;;;;10.58;nan;100992.81;4942142;28;20312;-78
2024/01/25 09:36:45;;;;;;;4.30;2.60;;;;;;;10.65;nan;101006.59;4944513;28;20603;-77
2024/01/25 09:39:10;;;;;;;4.37;3.33;;;;;;;10.76;nan;101004.34;4940006;28;20446;-78
2024/01/25 09:41:36;;;;;;;5.20;2.97;;;;;;;10.82;nan;101009.34;4943870;28;20485;-77
2024/01/25 09:44:02;;;;;;;5.93;3.23;;;;;;;10.87;nan;101003.91;4942187;28;20324;-78
2024/01/25 09:46:27;;;;;;;3.40;2.50;;;;;;;10.89;nan;101002.06;4944016;28;20226;-78
2024/01/25 09:48:52;;;;;;;3.20;1.97;;;;;;;10.93;nan;100998.38;4946562;28;20225;-78
2024/01/25 09:51:18;;;;;;;2.40;2.07;;;;;;;10.89;nan;101005.53;4946675;28;20210;-78
2024/01/25 09:53:47;;;;;;;10.43;2.10;;;;;;;10.91;nan;101000.19;4948611;28;20272;-78
2024/01/25 09:56:14;;;;;;;3.53;2.00;;;;;;;10.93;nan;100999.22;4950708;28;20218;-78
2024/01/25 09:58:45;;;;;;;2.90;1.87;;;;;;;10.95;nan;100993.91;4952709;28;20250;-78
2024/01/25 10:01:12;;;;;;;3.20;2.15;;;;;;;10.93;nan;100999.22;4951687;28;20551;-78
2024/01/25 10:03:47;;;;;;;2.95;2.30;;;;;;;10.95;nan;101001.78;4953396;28;20516;-78
2024/01/25 10:06:13;;;;;;;1.58;1.45;;;;;;;10.96;nan;101000.88;4952935;28;20397;-78
2024/01/25 10:08:39;;;;;;;4.80;2.22;;;;;;;10.97;nan;100998.19;4949619;28;20446;-78
2024/01/25 10:11:05;;;;;;;7.20;2.33;;;;;;;10.94;nan;100997.47;4948257;28;20232;-78
2024/01/25 10:13:31;;;;;;;2.20;1.60;;;;;;;10.94;nan;101000.09;4946323;28;20246;-78
2024/01/25 10:15:57;;;;;;;3.65;1.83;;;;;;;11.03;nan;101003.16;4945325;28;20222;-78
2024/01/25 10:18:26;;;;;;;1.55;1.45;;;;;;;11.12;nan;101007.16;4943606;28;20771;-78
2024/01/25 10:20:54;;;;;;;3.40;1.65;;;;;;;11.15;nan;101009.69;4946904;28;20273;-78
2024/01/25 10:23:19;;;;;;;2.10;1.60;;;;;;;11.15;nan;100993.91;4947602;28;20211;-78
2024/01/25 10:25:45;;;;;;;1.30;1.13;;;;;;;11.14;nan;101004.47;4951882;28;20497;-78
2024/01/25 10:28:12;;;;;;;6.50;1.50;;;;;;;11.18;nan;101006.03;4949535;28;20214;-77
2024/01/25 10:30:38;;;;;;;2.00;1.65;;;;;;;11.21;nan;101008.56;4951439;28;20209;-78
2024/01/25 10:33:04;;;;;;;1.10;0.80;;;;;;;11.17;nan;101005.19;4947909;28;20823;-78
2024/01/25 10:35:31;;;;;;;10.02;1.60;;;;;;;11.20;nan;101005.06;4946750;28;20358;-78
2024/01/25 10:37:57;;;;;;;2.97;1.00;;;;;;;11.24;nan;100997.91;4950027;28;20437;-78
2024/01/25 10:40:23;;;;;;;4.50;1.20;;;;;;;11.28;nan;101002.94;4951029;28;20457;-78
2024/01/25 10:42:49;;;;;;;3.07;1.40;;;;;;;11.28;nan;100994.19;4947899;28;21361;-78
2024/01/25 10:45:15;;;;;;;2.70;2.22;;;;;;;11.32;nan;100990.53;4948634;28;20683;-78
2024/01/25 10:47:41;;;;;;;1.20;1.10;;;;;;;11.34;nan;100987.81;4947285;28;20349;-78
2024/01/25 10:50:13;;;;;;;2.05;1.27;;;;;;;11.31;nan;100980.91;4948622;28;20475;-78
2024/01/25 10:52:40;;;;;;;3.40;1.63;;;;;;;11.23;nan;100976.03;4947298;28;20291;-78
2024/01/25 10:55:07;;;;;;;1.90;1.45;;;;;;;11.26;nan;100975.88;4949002;28;20317;-78
2024/01/25 10:57:44;;;;;;;4.57;1.70;;;;;;;11.28;nan;100965.28;4951487;28;20236;-78
2024/01/25 11:00:11;;;;;;;3.33;1.90;;;;;;;11.24;nan;100961.94;4950250;28;20220;-78
2024/01/25 11:02:39;;;;;;;2.25;1.80;;;;;;;11.25;nan;100966.25;4944733;28;20941;-78
2024/01/25 11:05:23;;;;;;;3.53;2.10;;;;;;;11.28;nan;100952.97;4949730;28;20884;-78
2024/01/25 11:07:50;;;;;;;2.83;1.90;;;;;;;11.36;nan;100959.66;4944004;28;20547;-78
2024/01/25 11:10:18;;;;;;;3.60;2.70;;;;;;;11.45;nan;100954.84;4950045;28;20220;-78
2024/01/25 11:12:53;;;;;;;3.15;1.80;;;;;;;11.54;nan;100950.09;4948200;28;20221;-78
2024/01/25 11:15:33;;;;;;;2.90;1.92;;;;;;;11.64;nan;100944.34;4948291;28;20784;-78
2024/01/25 11:18:00;;;;;;;1.80;1.48;;;;;;;11.68;nan;100948.50;4941745;28;20301;-78
2024/01/25 11:20:28;;;;;;;1.65;1.55;;;;;;;11.72;nan;100941.34;4943734;28;20217;-78
2024/01/25 11:23:04;;;;;;;2.13;1.40;;;;;;;11.76;nan;100942.88;4943125;28;20228;-78
2024/01/25 11:25:31;;;;;;;2.75;1.35;;;;;;;11.81;nan;100940.91;4945349;28;20219;-77
2024/01/25 11:27:58;;;;;;;2.20;1.40;;;;;;;11.89;nan;100932.66;4944112;28;20640;-77
2024/01/25 11:30:25;;;;;;;4.60;1.75;;;;;;;11.92;nan;100927.25;4945652;28;20294;-77
2024/01/25 11:32:50;;;;;;;1.70;1.15;;;;;;;11.96;nan;100923.53;4944824;28;20241;-77
2024/01/25 11:35:16;;;;;;;1.50;1.27;;;;;;;11.99;nan;100928.69;4944973;28;20216;-78
2024/01/25 11:37:51;;;;;;;3.83;2.65;;;;;;;11.98;nan;100923.47;4944916;28;20452;-77
2024/01/25 11:40:16;;;;;;;2.75;2.05;;;;;;;11.94;nan;100928.03;4946025;28;20299;-77
2024/01/25 11:42:43;;;;;;;2.97;1.90;;;;;;;11.91;nan;100922.94;4953190;28;20705;-77